»·PEaware :: N441PW CYYC-KMOT

N441PW :: CYYC-KMOT

FLIGHT INFORMATION

Flight Status: Arrived
Operator: Privately registered:
United States
More flights under this callsign
Pilot: Stacy K. (11621)
Aircraft: CESSNA 404 TITAN
(C404)
More flights by this aircraft type
Origin: CYYC Calgary Intl
Canada
Destination: KMOT Minot Intl
United States
More flights between these airports :: More routes between these airports
Route: YYC THIRD VULCAN YQL CDLYC CTB HVR CAGAT BOWDN GGW DORIA RILMY ISN RENLY MOT
File this flight plan on PilotEdge
Remarks:
Altitude:
(Current/Filed)
15,500ft
Speed:
(Current/Filed)
180kts
Departed: 13-Apr-18 03:41 AM
Arrived: 13-Apr-18 04:43 AM
Distance/Time
Traveled:
522nm/1:02
Distance/Time
To Go:
Arrived

Flight Plot

Page will automatically refresh every two minutes.

Flight plan parsing failed; only flown route is shown


Map Options




Map Legend


Flown Route
Filed Route
Departure Airport
Arrival Airport
Navaid (VOR, NDB)
Fix

Horizontal Profiles

Position Reports

Time Latitude Longitude Heading Altitude Ground
Speed
13-Apr-18 03:39 48.441224 -108.737295 98 14348ft 218kts
13-Apr-18 03:40 48.432331 -108.647179 98 13684ft 216kts
13-Apr-18 03:41 48.423500 -108.557882 98 13023ft 215kts
13-Apr-18 03:42 48.414688 -108.468806 98 12359ft 214kts
13-Apr-18 03:43 48.405987 -108.380140 98 11721ft 212kts
13-Apr-18 03:44 48.397960 -108.295224 99 11640ft 201kts
13-Apr-18 03:45 48.388537 -108.212502 99 11642ft 199kts
13-Apr-18 03:46 48.379807 -108.130373 98 11642ft 199kts
13-Apr-18 03:47 48.371162 -108.047902 99 11643ft 198kts
13-Apr-18 03:48 48.362531 -107.965756 98 11643ft 200kts
13-Apr-18 03:49 48.353708 -107.882655 98 11643ft 202kts
13-Apr-18 03:50 48.344802 -107.798952 98 11643ft 202kts
13-Apr-18 03:51 48.335916 -107.715506 98 11643ft 202kts
13-Apr-18 03:52 48.327010 -107.631733 98 11643ft 203kts
13-Apr-18 03:53 48.318307 -107.548100 98 11644ft 203kts
13-Apr-18 03:54 48.308933 -107.464246 100 11645ft 203kts
13-Apr-18 03:55 48.299003 -107.381027 99 11646ft 203kts
13-Apr-18 03:56 48.289594 -107.297695 99 11647ft 202kts
13-Apr-18 03:57 48.280259 -107.214492 99 11648ft 202kts
13-Apr-18 03:58 48.270862 -107.131108 99 11650ft 202kts
13-Apr-18 03:59 48.261465 -107.048167 99 11651ft 202kts
13-Apr-18 04:00 48.251979 -106.964803 99 11652ft 202kts
13-Apr-18 04:01 48.242554 -106.882133 99 11650ft 201kts
13-Apr-18 04:02 48.233132 -106.799424 99 11651ft 201kts
13-Apr-18 04:03 48.223813 -106.716701 99 11652ft 201kts
13-Apr-18 04:04 48.214697 -106.634018 101 11653ft 200kts
13-Apr-18 04:05 48.203635 -106.551128 101 11504ft 203kts
13-Apr-18 04:06 48.193502 -106.468641 100 11499ft 200kts
13-Apr-18 04:07 48.183625 -106.386429 100 11499ft 200kts
13-Apr-18 04:08 48.173737 -106.304432 100 11501ft 199kts
13-Apr-18 04:09 48.143702 -106.057956 100 11508ft 199kts
13-Apr-18 04:10 48.102575 -105.725882 100 11518ft 205kts
13-Apr-18 04:11 48.095297 -105.445869 82 11519ft 204kts
13-Apr-18 04:12 48.133719 -105.051651 82 11518ft 204kts
13-Apr-18 04:13 48.164516 -104.714784 83 11519ft 204kts
13-Apr-18 04:14 48.194989 -104.377758 84 11513ft 204kts
13-Apr-18 04:15 48.224772 -104.041174 84 11537ft 203kts
13-Apr-18 04:16 48.249851 -103.761178 87 11549ft 205kts
13-Apr-18 04:17 48.252570 -103.413336 88 11536ft 208kts
13-Apr-18 04:18 48.255900 -103.065955 89 11535ft 208kts
13-Apr-18 04:19 48.259359 -102.766233 88 11539ft 206kts
13-Apr-18 04:20 48.259003 -102.680165 92 11541ft 206kts
13-Apr-18 04:21 48.258045 -102.594484 90 11544ft 206kts
13-Apr-18 04:22 48.258046 -102.508198 89 11520ft 206kts
13-Apr-18 04:23 48.258153 -102.422462 89 11501ft 205kts
13-Apr-18 04:24 48.258310 -102.337027 89 11501ft 204kts
13-Apr-18 04:25 48.258388 -102.251699 89 11487ft 204kts
13-Apr-18 04:26 48.258299 -102.165370 90 10826ft 207kts
13-Apr-18 04:27 48.257714 -102.079554 97 10153ft 203kts
13-Apr-18 04:28 48.244940 -101.999746 103 9481ft 192kts
13-Apr-18 04:29 48.230490 -101.921331 103 8808ft 197kts
13-Apr-18 04:30 48.216870 -101.841746 99 8136ft 196kts
13-Apr-18 04:31 48.206196 -101.762472 99 7464ft 193kts
13-Apr-18 04:32 48.195475 -101.684223 98 6807ft 189kts
13-Apr-18 04:33 48.185029 -101.610322 99 6616ft 177kts
13-Apr-18 04:34 48.174552 -101.535913 98 5976ft 184kts
13-Apr-18 04:35 48.163971 -101.461005 99 5323ft 182kts
13-Apr-18 04:36 48.153473 -101.386788 98 4681ft 181kts
13-Apr-18 04:37 48.144324 -101.315524 89 4037ft 169kts
13-Apr-18 04:38 48.145277 -101.244748 64 3202ft 169kts
13-Apr-18 04:39 48.172560 -101.196216 18 3012ft 156kts
13-Apr-18 04:40 48.209489 -101.213077 317 3007ft 135kts
13-Apr-18 04:41 48.237103 -101.251479 319 2231ft 122kts
13-Apr-18 04:42 48.257871 -101.278844 320 1720ft 38kts
13-Apr-18 04:43 48.261192 -101.285482 311 1720ft 6kts
13-Apr-18 04:44 48.261917 -101.291746 278 1720ft 13kts
13-Apr-18 04:45 48.262315 -101.293744 4 1720ft 0kts
13-Apr-18 04:46 48.262315 -101.293744 4 1720ft 0kts
13-Apr-18 04:47 48.262315 -101.293744 4 1720ft 0kts
13-Apr-18 04:48 48.262315 -101.293744 4 1720ft 0kts
13-Apr-18 04:49 48.262315 -101.293744 4 1720ft 0kts
13-Apr-18 04:50 48.262315 -101.293744 4 1720ft 0kts

Navigation Log

Ident Type
Flight plan parsing failed, navigation log unavailable